Birmingham (BHM/KBHM)

Map

Destinations

Information

Location
Birmingham, AL
Local Time
17:31 / 5:31 pm
GMT Time
23:31 / 11:31 pm
Gates
Unassigned
No FAA reported delays
METAR KBHM 182253Z 32005KT 10SM CLR 03/M13 A3042 RMK AO2 SLP308 T00281128
TAF KBHM 181720Z 1818/1918 31007KT P6SM SKC FM190000 00000KT P6SM SKC FM191500 27004KT P6SM SKC